Time;durP1;ratioP1;P1;durP2;ratioP2;P2;SDS_P1;SDS_P2;PMS_P1;PMS_P2;Temp;Humidity;BMP_temperature;BMP_pressure;BME280_temperature;BME280_humidity;BME280_pressure;Samples;Min_cycle;Max_cycle;Signal;HPM_P1;HPM_P2
2021/11/19 00:01:43;;;;;;;18.63;10.27;;;;;;;;;;5018204;28;20489;-55
2021/11/19 00:04:09;;;;;;;17.73;9.45;;;;;;;;;;5012942;28;20129;-54
2021/11/19 00:06:35;;;;;;;18.08;9.45;;;;;;;;;;5016683;28;20212;-53
2021/11/19 00:09:01;;;;;;;16.23;8.95;;;;;;;;;;5018767;28;20029;-52
2021/11/19 00:11:30;;;;;;;16.95;8.82;;;;;;;;;;5012712;28;20033;-54
2021/11/19 00:13:57;;;;;;;15.73;8.32;;;;;;;;;;5016182;28;20029;-53
2021/11/19 00:16:26;;;;;;;15.75;8.32;;;;;;;;;;5018200;28;20026;-53
2021/11/19 00:18:51;;;;;;;15.38;7.72;;;;;;;;;;5017509;28;20052;-52
2021/11/19 00:21:18;;;;;;;14.75;7.65;;;;;;;;;;5020651;28;20477;-53
2021/11/19 00:23:45;;;;;;;17.35;7.97;;;;;;;;;;5023805;28;20029;-54
2021/11/19 00:29:35;;;;;;;13.30;7.40;;;;;;;;;;4995280;28;20064;-79
2021/11/19 00:32:00;;;;;;;15.02;7.68;;;;;;;;;;5009315;28;20042;-78
2021/11/19 00:34:26;;;;;;;18.58;7.95;;;;;;;;;;5005392;28;20124;-80
2021/11/19 00:36:55;;;;;;;16.55;7.50;;;;;;;;;;5005298;28;20037;-80
2021/11/19 00:39:24;;;;;;;18.50;8.75;;;;;;;;;;5009111;28;20022;-79
2021/11/19 00:41:50;;;;;;;17.67;9.10;;;;;;;;;;5006613;28;20530;-79
2021/11/19 00:44:16;;;;;;;16.20;8.10;;;;;;;;;;5005962;28;20030;-79
2021/11/19 00:46:44;;;;;;;19.13;8.45;;;;;;;;;;5008118;28;20045;-79
2021/11/19 00:49:13;;;;;;;23.55;9.93;;;;;;;;;;5006652;28;20026;-77
2021/11/19 00:51:43;;;;;;;18.23;9.35;;;;;;;;;;5004729;28;20025;-77
2021/11/19 00:54:09;;;;;;;19.15;8.75;;;;;;;;;;5006301;28;20025;-79
2021/11/19 00:56:40;;;;;;;18.15;9.02;;;;;;;;;;5007276;28;20037;-78
2021/11/19 00:59:07;;;;;;;21.63;9.98;;;;;;;;;;5006969;28;20068;-79
2021/11/19 01:01:36;;;;;;;21.48;9.98;;;;;;;;;;5005290;28;20083;-80
2021/11/19 01:04:05;;;;;;;20.60;9.82;;;;;;;;;;5000737;28;20030;-77
2021/11/19 01:06:33;;;;;;;20.45;9.80;;;;;;;;;;5002572;28;20038;-77
2021/11/19 01:09:01;;;;;;;20.67;9.75;;;;;;;;;;5006709;28;20034;-77
2021/11/19 01:11:30;;;;;;;20.70;10.30;;;;;;;;;;5023520;28;20524;-77
2021/11/19 01:13:58;;;;;;;22.83;10.38;;;;;;;;;;5006276;28;20045;-78
2021/11/19 01:16:55;;;;;;;22.05;10.55;;;;;;;;;;5006250;28;20041;-77
2021/11/19 01:19:29;;;;;;;22.05;10.65;;;;;;;;;;5004484;28;20045;-77
2021/11/19 01:21:59;;;;;;;25.40;10.20;;;;;;;;;;5010561;28;20029;-77
2021/11/19 01:24:28;;;;;;;22.83;10.95;;;;;;;;;;5009342;28;20026;-77
2021/11/19 01:26:54;;;;;;;24.88;11.23;;;;;;;;;;5007523;28;20117;-78
2021/11/19 01:29:20;;;;;;;22.48;9.70;;;;;;;;;;5007759;28;20350;-79
2021/11/19 01:31:57;;;;;;;22.92;10.63;;;;;;;;;;5005232;28;20045;-78
2021/11/19 01:34:24;;;;;;;24.80;10.52;;;;;;;;;;5009362;28;20394;-77
2021/11/19 01:36:52;;;;;;;25.50;10.90;;;;;;;;;;5012129;28;20034;-77
2021/11/19 01:39:21;;;;;;;23.80;10.60;;;;;;;;;;5011382;28;20022;-79
2021/11/19 01:41:55;;;;;;;22.70;10.45;;;;;;;;;;5010268;28;20060;-79
2021/11/19 01:44:37;;;;;;;20.38;9.27;;;;;;;;;;5011237;28;20065;-79
2021/11/19 01:47:05;;;;;;;23.02;10.40;;;;;;;;;;5007819;28;20034;-78
2021/11/19 01:49:32;;;;;;;19.65;8.90;;;;;;;;;;5005031;28;20026;-78
2021/11/19 01:52:05;;;;;;;20.98;9.80;;;;;;;;;;5007551;28;20025;-79
2021/11/19 01:54:36;;;;;;;18.85;9.90;;;;;;;;;;5007521;28;20029;-78
2021/11/19 01:57:09;;;;;;;21.08;9.93;;;;;;;;;;5006242;28;20095;-78
2021/11/19 01:59:39;;;;;;;24.42;10.57;;;;;;;;;;5005730;28;20030;-78
2021/11/19 02:02:09;;;;;;;23.05;10.82;;;;;;;;;;5000870;28;20073;-77
2021/11/19 02:04:46;;;;;;;21.00;10.07;;;;;;;;;;5008536;28;20033;-78
2021/11/19 02:07:45;;;;;;;20.63;9.93;;;;;;;;;;5008447;28;20026;-77
2021/11/19 02:10:22;;;;;;;20.38;9.77;;;;;;;;;;5007660;28;20022;-79
2021/11/19 02:13:04;;;;;;;25.27;9.75;;;;;;;;;;5004699;28;20481;-77
2021/11/19 02:15:41;;;;;;;19.95;9.35;;;;;;;;;;5006316;28;20502;-78
2021/11/19 02:18:15;;;;;;;20.52;9.98;;;;;;;;;;5018414;28;20042;-79
2021/11/19 02:20:43;;;;;;;25.83;9.82;;;;;;;;;;5005261;28;20179;-78
2021/11/19 02:23:17;;;;;;;21.52;9.98;;;;;;;;;;5002132;28;20061;-79
2021/11/19 02:26:07;;;;;;;20.33;9.18;;;;;;;;;;5006006;28;20036;-78
2021/11/19 02:28:35;;;;;;;18.67;9.65;;;;;;;;;;5005064;28;20552;-78
2021/11/19 02:31:14;;;;;;;20.08;9.23;;;;;;;;;;5009067;28;20022;-78
2021/11/19 02:33:42;;;;;;;23.08;9.38;;;;;;;;;;5005559;28;20025;-78
2021/11/19 02:36:22;;;;;;;19.05;8.60;;;;;;;;;;5012429;28;20037;-78
2021/11/19 02:38:51;;;;;;;22.58;9.77;;;;;;;;;;5006385;28;20026;-78
2021/11/19 02:41:19;;;;;;;18.80;8.88;;;;;;;;;;5006045;28;20057;-78
2021/11/19 02:43:55;;;;;;;19.90;9.50;;;;;;;;;;5007436;28;20072;-79
2021/11/19 02:46:51;;;;;;;19.95;9.10;;;;;;;;;;5006099;28;20041;-79
2021/11/19 02:49:17;;;;;;;20.88;8.88;;;;;;;;;;5003939;28;20037;-79
2021/11/19 02:51:45;;;;;;;18.05;8.70;;;;;;;;;;5009440;28;20637;-79
2021/11/19 02:54:13;;;;;;;21.95;9.98;;;;;;;;;;5009244;28;20025;-77
2021/11/19 02:56:39;;;;;;;21.33;9.77;;;;;;;;;;5016636;28;20048;-78
2021/11/19 02:59:07;;;;;;;20.17;8.95;;;;;;;;;;5012637;28;20017;-77
2021/11/19 03:01:39;;;;;;;22.55;9.43;;;;;;;;;;5009309;28;20047;-78
2021/11/19 03:04:10;;;;;;;21.60;8.60;;;;;;;;;;5007036;28;20081;-79
2021/11/19 03:06:46;;;;;;;22.27;9.43;;;;;;;;;;5010400;28;20112;-79
2021/11/19 03:09:13;;;;;;;19.23;8.98;;;;;;;;;;5003482;28;20030;-79
2021/11/19 03:11:40;;;;;;;19.65;8.57;;;;;;;;;;5007405;28;20033;-78
2021/11/19 03:14:07;;;;;;;19.13;8.73;;;;;;;;;;5004595;28;20037;-79
2021/11/19 03:16:34;;;;;;;16.75;8.13;;;;;;;;;;5005521;28;20022;-78
2021/11/19 03:19:00;;;;;;;23.15;10.65;;;;;;;;;;5000676;28;20113;-77
2021/11/19 03:21:25;;;;;;;18.63;8.90;;;;;;;;;;5004479;28;20125;-77
2021/11/19 03:23:57;;;;;;;18.85;8.57;;;;;;;;;;4999073;28;20076;-77
2021/11/19 03:26:25;;;;;;;21.25;8.75;;;;;;;;;;5003799;28;20105;-78
2021/11/19 03:28:50;;;;;;;17.92;8.45;;;;;;;;;;5008738;28;20029;-77
2021/11/19 03:31:17;;;;;;;21.83;9.40;;;;;;;;;;5007198;28;20033;-78
2021/11/19 03:33:45;;;;;;;20.92;8.48;;;;;;;;;;5006862;28;20029;-77
2021/11/19 03:36:16;;;;;;;16.58;8.40;;;;;;;;;;5006610;28;20393;-77
2021/11/19 03:38:44;;;;;;;19.08;9.13;;;;;;;;;;5005439;28;20030;-77
2021/11/19 03:41:12;;;;;;;18.00;8.65;;;;;;;;;;5007134;28;20097;-77
2021/11/19 03:43:51;;;;;;;22.10;8.52;;;;;;;;;;5006811;28;20030;-77
2021/11/19 03:46:23;;;;;;;20.55;9.05;;;;;;;;;;5003070;28;20371;-77
2021/11/19 03:48:48;;;;;;;23.95;9.45;;;;;;;;;;5005833;28;20038;-78
2021/11/19 03:51:34;;;;;;;20.42;9.20;;;;;;;;;;4999788;28;20026;-78
2021/11/19 03:54:04;;;;;;;16.58;8.38;;;;;;;;;;5003014;28;20025;-77
2021/11/19 03:56:29;;;;;;;19.92;8.82;;;;;;;;;;5019149;28;20527;-76
2021/11/19 03:58:57;;;;;;;17.73;8.27;;;;;;;;;;5001578;28;20116;-79
2021/11/19 04:01:30;;;;;;;20.52;8.75;;;;;;;;;;5004391;28;20029;-80
2021/11/19 04:03:59;;;;;;;19.42;8.10;;;;;;;;;;5008171;28;20056;-77
2021/11/19 04:06:25;;;;;;;19.60;8.52;;;;;;;;;;5004122;28;20057;-78
2021/11/19 04:08:51;;;;;;;18.83;8.70;;;;;;;;;;5005966;28;20069;-78
2021/11/19 04:11:17;;;;;;;21.17;9.65;;;;;;;;;;5001473;28;20105;-77
2021/11/19 04:13:44;;;;;;;20.42;9.05;;;;;;;;;;5006630;28;20058;-77
2021/11/19 04:16:17;;;;;;;24.23;11.10;;;;;;;;;;5005469;28;20998;-79
2021/11/19 04:18:42;;;;;;;26.60;12.50;;;;;;;;;;5004352;28;20041;-77
2021/11/19 04:21:09;;;;;;;36.40;18.77;;;;;;;;;;4998294;28;20025;-77
2021/11/19 04:23:35;;;;;;;33.25;15.43;;;;;;;;;;5004237;28;20157;-79
2021/11/19 04:26:03;;;;;;;23.90;11.55;;;;;;;;;;5005041;28;20028;-78
2021/11/19 04:28:29;;;;;;;19.80;9.63;;;;;;;;;;5002203;28;20576;-77
2021/11/19 04:30:56;;;;;;;22.25;10.93;;;;;;;;;;5005417;28;20037;-77
2021/11/19 04:33:22;;;;;;;25.25;11.85;;;;;;;;;;5006055;28;20097;-79
2021/11/19 04:35:49;;;;;;;21.45;10.02;;;;;;;;;;5008134;28;20450;-78
2021/11/19 04:38:16;;;;;;;20.08;9.95;;;;;;;;;;5004234;28;20033;-78
2021/11/19 04:40:43;;;;;;;22.27;10.60;;;;;;;;;;5008470;28;20045;-77
2021/11/19 04:43:10;;;;;;;25.73;10.10;;;;;;;;;;5003572;28;20041;-80
2021/11/19 04:45:37;;;;;;;25.50;11.95;;;;;;;;;;5007169;28;20022;-77
2021/11/19 04:48:04;;;;;;;24.42;11.90;;;;;;;;;;5005255;28;20118;-77
2021/11/19 04:50:34;;;;;;;25.40;10.80;;;;;;;;;;5008088;28;20025;-79
2021/11/19 04:52:59;;;;;;;22.40;10.40;;;;;;;;;;5004462;28;20034;-78
2021/11/19 04:55:26;;;;;;;29.48;11.75;;;;;;;;;;5012554;28;20080;-78
2021/11/19 04:57:51;;;;;;;25.10;11.10;;;;;;;;;;5007321;28;20033;-77
2021/11/19 05:00:23;;;;;;;22.20;10.65;;;;;;;;;;5011257;28;20092;-77
2021/11/19 05:02:48;;;;;;;21.88;10.63;;;;;;;;;;5013397;28;20659;-76
2021/11/19 05:05:16;;;;;;;22.05;9.45;;;;;;;;;;5015264;28;20061;-77
2021/11/19 05:07:42;;;;;;;24.60;10.50;;;;;;;;;;5008523;28;20064;-79
2021/11/19 05:10:08;;;;;;;33.95;11.48;;;;;;;;;;5005891;28;20068;-78
2021/11/19 05:12:39;;;;;;;37.75;14.82;;;;;;;;;;5003096;28;20125;-77
2021/11/19 05:15:05;;;;;;;45.15;16.20;;;;;;;;;;5007072;28;20042;-77
2021/11/19 05:17:32;;;;;;;42.50;17.00;;;;;;;;;;5004422;28;20363;-78
2021/11/19 05:20:00;;;;;;;44.90;18.08;;;;;;;;;;5009057;28;20018;-77
2021/11/19 05:22:26;;;;;;;37.35;14.75;;;;;;;;;;5008837;28;20110;-77
2021/11/19 05:24:51;;;;;;;40.92;14.48;;;;;;;;;;5006814;28;20344;-77
2021/11/19 05:27:18;;;;;;;36.13;13.52;;;;;;;;;;5009648;28;20030;-77
2021/11/19 05:29:44;;;;;;;37.30;11.88;;;;;;;;;;5006499;28;20043;-77
2021/11/19 05:32:12;;;;;;;34.15;11.68;;;;;;;;;;5007750;28;20508;-78
2021/11/19 05:34:39;;;;;;;24.17;10.48;;;;;;;;;;5004455;28;20115;-77
2021/11/19 05:37:04;;;;;;;29.50;12.32;;;;;;;;;;5020392;28;20108;-78
2021/11/19 05:39:32;;;;;;;29.67;12.35;;;;;;;;;;5004909;28;20427;-77
2021/11/19 05:41:59;;;;;;;27.85;12.35;;;;;;;;;;5002953;28;20991;-79
2021/11/19 05:44:25;;;;;;;33.92;13.27;;;;;;;;;;5026693;28;20021;-80
2021/11/19 05:46:50;;;;;;;29.15;12.45;;;;;;;;;;5007663;28;20033;-78
2021/11/19 05:49:20;;;;;;;39.65;14.30;;;;;;;;;;5004115;28;20506;-77
2021/11/19 05:51:47;;;;;;;29.23;12.60;;;;;;;;;;5010894;28;20029;-77
2021/11/19 05:54:17;;;;;;;33.33;13.57;;;;;;;;;;5007619;28;20042;-78
2021/11/19 05:56:43;;;;;;;26.75;11.95;;;;;;;;;;5006607;28;20029;-78
2021/11/19 05:59:09;;;;;;;48.33;19.80;;;;;;;;;;5012785;28;20030;-78
2021/11/19 06:01:35;;;;;;;49.22;17.92;;;;;;;;;;5009039;28;20049;-78
2021/11/19 06:04:00;;;;;;;37.33;16.20;;;;;;;;;;5009659;28;20037;-79
2021/11/19 06:06:26;;;;;;;34.22;13.80;;;;;;;;;;5011816;28;20064;-79
2021/11/19 06:08:51;;;;;;;34.35;13.48;;;;;;;;;;5009949;28;20041;-77
2021/11/19 06:11:30;;;;;;;40.42;13.75;;;;;;;;;;5006600;28;20405;-77
2021/11/19 06:14:04;;;;;;;29.83;11.33;;;;;;;;;;5006174;28;20478;-76
2021/11/19 06:16:39;;;;;;;28.10;11.57;;;;;;;;;;5004970;28;20473;-77
2021/11/19 06:19:09;;;;;;;25.00;9.48;;;;;;;;;;5006921;28;21481;-77
2021/11/19 06:21:44;;;;;;;21.95;9.50;;;;;;;;;;5009484;28;20030;-76
2021/11/19 06:24:18;;;;;;;21.98;9.60;;;;;;;;;;5005570;28;20658;-76
2021/11/19 06:26:47;;;;;;;23.00;8.68;;;;;;;;;;5004651;28;20029;-77
2021/11/19 06:29:13;;;;;;;26.88;8.73;;;;;;;;;;5001426;28;20053;-75
2021/11/19 06:31:44;;;;;;;18.38;8.25;;;;;;;;;;5008670;28;20042;-76
2021/11/19 06:34:12;;;;;;;15.65;7.68;;;;;;;;;;5004293;28;20153;-76
2021/11/19 06:36:43;;;;;;;21.08;9.48;;;;;;;;;;5007989;28;20026;-76
2021/11/19 06:39:14;;;;;;;18.33;8.63;;;;;;;;;;5003558;28;20025;-76
2021/11/19 06:41:41;;;;;;;22.52;9.55;;;;;;;;;;5002298;28;20104;-77
2021/11/19 06:44:08;;;;;;;19.77;8.85;;;;;;;;;;5001596;28;20030;-78
2021/11/19 06:46:34;;;;;;;21.08;9.35;;;;;;;;;;5001341;28;20108;-79
2021/11/19 06:49:00;;;;;;;21.52;10.35;;;;;;;;;;4999198;28;20172;-76
2021/11/19 06:51:28;;;;;;;21.33;9.40;;;;;;;;;;5002401;28;20037;-75
2021/11/19 06:53:54;;;;;;;24.27;11.38;;;;;;;;;;5003871;28;20033;-75
2021/11/19 06:56:20;;;;;;;37.80;15.27;;;;;;;;;;5002181;28;20038;-76
2021/11/19 06:58:53;;;;;;;47.15;18.92;;;;;;;;;;5002887;28;20088;-76
2021/11/19 07:01:22;;;;;;;46.05;20.95;;;;;;;;;;5004563;28;20032;-76
2021/11/19 07:03:49;;;;;;;48.92;21.98;;;;;;;;;;5003527;28;20042;-76
2021/11/19 07:06:16;;;;;;;53.72;22.67;;;;;;;;;;5007501;28;20042;-76
2021/11/19 07:08:42;;;;;;;48.50;22.17;;;;;;;;;;5004414;28;20030;-75
2021/11/19 07:11:12;;;;;;;55.88;24.73;;;;;;;;;;5000449;28;20512;-76
2021/11/19 07:13:40;;;;;;;45.30;20.63;;;;;;;;;;5004736;28;20047;-77
2021/11/19 07:16:08;;;;;;;47.45;20.00;;;;;;;;;;5002159;28;20652;-75
2021/11/19 07:18:34;;;;;;;41.55;18.50;;;;;;;;;;5002924;28;20128;-75
2021/11/19 07:21:01;;;;;;;38.97;17.58;;;;;;;;;;5001379;28;20549;-77
2021/11/19 07:23:27;;;;;;;43.50;17.65;;;;;;;;;;5002648;28;20121;-77
2021/11/19 07:25:54;;;;;;;50.25;20.35;;;;;;;;;;5003870;28;20117;-77
2021/11/19 07:28:21;;;;;;;45.67;20.83;;;;;;;;;;4998792;28;20037;-77
2021/11/19 07:30:51;;;;;;;48.70;21.27;;;;;;;;;;5007588;28;20051;-77
2021/11/19 07:33:21;;;;;;;46.25;19.52;;;;;;;;;;5002993;28;20115;-77
2021/11/19 07:35:48;;;;;;;46.17;20.75;;;;;;;;;;5003284;28;20030;-77
2021/11/19 07:38:14;;;;;;;46.22;20.38;;;;;;;;;;5002201;28;20029;-77
2021/11/19 07:40:42;;;;;;;43.00;18.80;;;;;;;;;;5000690;28;20175;-76
2021/11/19 07:43:08;;;;;;;48.78;20.55;;;;;;;;;;5004719;28;20163;-77
2021/11/19 07:45:37;;;;;;;52.63;23.48;;;;;;;;;;5004794;28;20112;-76
2021/11/19 07:48:09;;;;;;;50.72;23.05;;;;;;;;;;5004568;28;20025;-76
2021/11/19 07:50:35;;;;;;;42.55;19.27;;;;;;;;;;5002928;28;20018;-76
2021/11/19 07:53:00;;;;;;;42.75;18.35;;;;;;;;;;5002228;28;20034;-76
2021/11/19 07:55:27;;;;;;;47.72;17.60;;;;;;;;;;5005860;28;20496;-76
2021/11/19 07:57:52;;;;;;;41.33;16.15;;;;;;;;;;5002691;28;20096;-75
2021/11/19 08:00:23;;;;;;;37.97;16.25;;;;;;;;;;5003491;28;20030;-75
2021/11/19 08:02:48;;;;;;;35.40;15.57;;;;;;;;;;5005818;28;20374;-76
2021/11/19 08:05:14;;;;;;;37.65;17.00;;;;;;;;;;5004324;28;20116;-76
2021/11/19 08:07:42;;;;;;;37.83;16.48;;;;;;;;;;5006369;28;20113;-76
2021/11/19 08:10:09;;;;;;;36.10;15.50;;;;;;;;;;5007278;28;20032;-76
2021/11/19 08:12:35;;;;;;;35.80;15.75;;;;;;;;;;5002547;28;20385;-79
2021/11/19 08:15:01;;;;;;;33.58;14.55;;;;;;;;;;5005125;28;20109;-76
2021/11/19 08:17:31;;;;;;;33.42;14.55;;;;;;;;;;5004305;28;20117;-77
2021/11/19 08:19:59;;;;;;;31.83;13.23;;;;;;;;;;5006162;28;20045;-78
2021/11/19 08:22:25;;;;;;;31.27;14.57;;;;;;;;;;5017594;28;20041;-75
2021/11/19 08:24:51;;;;;;;31.15;14.02;;;;;;;;;;5005263;28;20269;-75
2021/11/19 08:27:21;;;;;;;31.30;13.57;;;;;;;;;;5001951;28;20026;-76
2021/11/19 08:29:54;;;;;;;32.50;13.93;;;;;;;;;;5009165;28;20093;-75
2021/11/19 08:32:22;;;;;;;31.15;14.50;;;;;;;;;;5007806;28;20045;-76
2021/11/19 08:34:49;;;;;;;35.22;15.60;;;;;;;;;;5008223;28;20026;-76
2021/11/19 08:37:16;;;;;;;38.45;16.65;;;;;;;;;;5008571;28;20033;-76
2021/11/19 08:39:42;;;;;;;35.08;16.50;;;;;;;;;;5005213;28;20092;-76
2021/11/19 08:42:09;;;;;;;37.53;15.50;;;;;;;;;;5006388;28;20052;-76
2021/11/19 08:44:37;;;;;;;35.15;16.33;;;;;;;;;;5010061;28;20113;-76
2021/11/19 08:47:03;;;;;;;36.63;16.05;;;;;;;;;;5006751;28;20080;-75
2021/11/19 08:49:31;;;;;;;32.33;14.52;;;;;;;;;;5005581;28;20048;-76
2021/11/19 08:51:56;;;;;;;38.95;14.30;;;;;;;;;;5004079;28;20034;-75
2021/11/19 08:54:23;;;;;;;34.67;14.30;;;;;;;;;;5013388;28;20024;-76
2021/11/19 08:56:59;;;;;;;30.52;13.55;;;;;;;;;;5011826;28;20033;-77
2021/11/19 08:59:28;;;;;;;33.58;12.93;;;;;;;;;;5003932;28;20033;-76
2021/11/19 09:01:54;;;;;;;25.98;12.38;;;;;;;;;;5007080;28;20042;-77
2021/11/19 09:04:21;;;;;;;28.38;13.05;;;;;;;;;;5008738;28;20033;-76
2021/11/19 09:06:47;;;;;;;24.42;11.90;;;;;;;;;;5005033;28;20033;-77
2021/11/19 09:09:12;;;;;;;24.05;11.73;;;;;;;;;;5010217;28;20041;-77
2021/11/19 09:11:39;;;;;;;26.80;12.02;;;;;;;;;;5007518;28;20092;-77
2021/11/19 09:14:05;;;;;;;24.90;11.48;;;;;;;;;;5004201;28;20062;-77
2021/11/19 09:16:35;;;;;;;27.52;12.77;;;;;;;;;;5007466;28;20025;-77
2021/11/19 09:19:20;;;;;;;24.45;12.30;;;;;;;;;;5006072;28;20351;-77
2021/11/19 09:21:55;;;;;;;22.27;11.02;;;;;;;;;;5002802;28;20093;-77
2021/11/19 09:24:28;;;;;;;22.67;11.20;;;;;;;;;;5007675;28;20460;-76
2021/11/19 09:27:00;;;;;;;27.85;11.73;;;;;;;;;;5006178;28;20038;-76
2021/11/19 09:29:36;;;;;;;24.25;11.07;;;;;;;;;;5005447;28;20624;-76
2021/11/19 09:32:06;;;;;;;29.27;13.85;;;;;;;;;;5005183;28;20413;-76
2021/11/19 09:34:37;;;;;;;29.67;14.90;;;;;;;;;;5002758;28;20073;-76
2021/11/19 09:37:08;;;;;;;29.15;15.30;;;;;;;;;;5006651;28;20107;-76
2021/11/19 09:39:34;;;;;;;35.10;17.02;;;;;;;;;;5009347;28;20084;-76
2021/11/19 09:42:33;;;;;;;29.25;14.40;;;;;;;;;;5007402;28;20044;-76
2021/11/19 09:45:39;;;;;;;31.95;16.25;;;;;;;;;;5021098;28;20456;-76
2021/11/19 09:48:37;;;;;;;50.88;25.45;;;;;;;;;;5003809;28;20030;-76
2021/11/19 09:51:17;;;;;;;44.53;22.05;;;;;;;;;;5025594;28;20118;-77
2021/11/19 09:53:49;;;;;;;33.55;17.27;;;;;;;;;;5005953;28;20026;-76
2021/11/19 09:56:35;;;;;;;28.90;15.25;;;;;;;;;;5009272;28;20034;-77
2021/11/19 09:59:17;;;;;;;26.20;13.45;;;;;;;;;;5002060;28;20025;-77
2021/11/19 10:01:42;;;;;;;26.67;13.70;;;;;;;;;;5002171;28;20152;-76
2021/11/19 10:04:08;;;;;;;27.65;13.25;;;;;;;;;;5006520;28;20112;-76
2021/11/19 10:06:55;;;;;;;25.10;13.18;;;;;;;;;;5009133;28;20036;-77
2021/11/19 10:09:35;;;;;;;23.17;12.38;;;;;;;;;;5012473;28;20041;-77
2021/11/19 10:12:06;;;;;;;;;;;;;;;;;;5008527;28;20042;-77
2021/11/19 10:14:42;;;;;;;23.33;12.32;;;;;;;;;;5003581;28;19920;-77
2021/11/19 10:17:14;;;;;;;24.73;12.18;;;;;;;;;;5004664;28;20039;-76
2021/11/19 10:19:51;;;;;;;22.67;12.25;;;;;;;;;;5005264;28;20038;-76
2021/11/19 10:22:31;;;;;;;21.33;11.38;;;;;;;;;;5011659;28;20068;-76
2021/11/19 10:25:09;;;;;;;21.33;11.05;;;;;;;;;;5005098;28;20037;-77
2021/11/19 10:27:50;;;;;;;22.10;10.77;;;;;;;;;;5004209;28;20026;-76
2021/11/19 10:30:40;;;;;;;18.73;10.63;;;;;;;;;;5005671;28;20030;-76
2021/11/19 10:33:27;;;;;;;23.05;12.10;;;;;;;;;;5007079;28;20037;-77
2021/11/19 10:36:08;;;;;;;23.08;11.90;;;;;;;;;;5004647;28;20478;-78
2021/11/19 10:38:49;;;;;;;18.90;10.68;;;;;;;;;;5006149;28;20069;-76
2021/11/19 10:41:28;;;;;;;19.38;11.55;;;;;;;;;;5010171;28;20038;-76
2021/11/19 10:44:09;;;;;;;21.58;11.23;;;;;;;;;;5006484;28;20042;-76
2021/11/19 10:46:54;;;;;;;26.13;13.57;;;;;;;;;;5008423;28;20111;-77
2021/11/19 10:49:32;;;;;;;24.63;13.55;;;;;;;;;;5009117;28;20086;-76
2021/11/19 10:52:22;;;;;;;24.10;12.63;;;;;;;;;;5023081;28;20583;-77
2021/11/19 10:55:09;;;;;;;28.25;12.63;;;;;;;;;;5009274;28;20053;-76
2021/11/19 10:57:58;;;;;;;21.65;13.27;;;;;;;;;;5000094;28;20156;-77
2021/11/19 11:00:24;;;;;;;;;;;;;;;;;;5006113;28;20042;-77
2021/11/19 11:02:51;;;;;;;25.10;13.82;;;;;;;;;;5001398;28;19918;-77
2021/11/19 11:05:35;;;;;;;22.50;13.10;;;;;;;;;;5003981;28;20026;-77
2021/11/19 11:08:19;;;;;;;26.73;15.52;;;;;;;;;;5005720;28;20061;-76
2021/11/19 11:10:52;;;;;;;22.73;13.60;;;;;;;;;;5004810;28;20026;-77
2021/11/19 11:13:26;;;;;;;25.23;14.35;;;;;;;;;;5001653;28;20030;-76
2021/11/19 11:16:03;;;;;;;21.73;13.65;;;;;;;;;;5021979;28;20025;-76
2021/11/19 11:18:35;;;;;;;26.77;14.00;;;;;;;;;;5000338;28;20036;-76
2021/11/19 11:21:13;;;;;;;24.00;15.18;;;;;;;;;;4992498;28;20109;-76
2021/11/19 11:23:45;;;;;;;23.10;13.10;;;;;;;;;;4988474;28;20139;-76
2021/11/19 11:26:41;;;;;;;23.02;12.98;;;;;;;;;;5020860;28;20033;-76
2021/11/19 11:29:16;;;;;;;19.50;12.38;;;;;;;;;;5004352;28;20525;-76
2021/11/19 11:32:00;;;;;;;19.75;12.70;;;;;;;;;;5017452;28;20034;-76
2021/11/19 11:34:31;;;;;;;20.67;12.90;;;;;;;;;;5005036;28;20101;-76
2021/11/19 11:37:32;;;;;;;19.80;12.38;;;;;;;;;;5005498;28;20026;-76
2021/11/19 11:40:16;;;;;;;19.50;11.63;;;;;;;;;;5004841;28;20033;-76
2021/11/19 11:42:47;;;;;;;19.02;11.18;;;;;;;;;;5005166;28;20026;-75
2021/11/19 11:45:35;;;;;;;18.55;11.02;;;;;;;;;;5008748;28;20025;-75
2021/11/19 11:48:10;;;;;;;18.38;11.18;;;;;;;;;;5009953;28;20030;-76
2021/11/19 11:50:50;;;;;;;19.00;11.77;;;;;;;;;;5009931;28;20057;-76
2021/11/19 11:53:20;;;;;;;21.75;12.75;;;;;;;;;;5005798;28;20035;-76
2021/11/19 11:56:16;;;;;;;19.67;12.05;;;;;;;;;;5008351;28;20091;-76
2021/11/19 11:58:45;;;;;;;22.15;12.40;;;;;;;;;;5008583;28;20083;-76
2021/11/19 12:01:38;;;;;;;16.77;10.82;;;;;;;;;;5003587;28;20029;-75
2021/11/19 12:04:36;;;;;;;18.55;11.40;;;;;;;;;;5007605;28;20377;-75
2021/11/19 12:07:04;;;;;;;17.75;11.35;;;;;;;;;;5006758;28;20048;-75
2021/11/19 12:09:29;;;;;;;20.63;11.45;;;;;;;;;;5005231;28;20042;-76
2021/11/19 12:12:17;;;;;;;19.75;12.00;;;;;;;;;;5003353;28;20053;-77
2021/11/19 12:15:00;;;;;;;18.00;11.23;;;;;;;;;;5006475;28;20041;-76
2021/11/19 12:17:37;;;;;;;18.98;11.35;;;;;;;;;;5008655;28;20050;-76
2021/11/19 12:20:11;;;;;;;19.55;11.20;;;;;;;;;;5006508;28;20026;-77
2021/11/19 12:23:08;;;;;;;20.58;11.93;;;;;;;;;;5002821;28;20034;-77
2021/11/19 12:26:09;;;;;;;18.77;10.93;;;;;;;;;;5002829;28;20021;-78
2021/11/19 12:29:01;;;;;;;17.33;9.00;;;;;;;;;;4972455;28;20494;-77
2021/11/19 12:31:51;;;;;;;19.58;11.43;;;;;;;;;;5003203;28;20033;-77
2021/11/19 12:34:30;;;;;;;18.65;11.07;;;;;;;;;;4998818;28;20061;-77
2021/11/19 12:37:00;;;;;;;17.63;10.52;;;;;;;;;;4994810;28;20022;-77
2021/11/19 12:39:30;;;;;;;16.90;10.98;;;;;;;;;;5002098;28;20040;-76
2021/11/19 12:42:35;;;;;;;16.83;10.57;;;;;;;;;;4996230;28;20406;-75
2021/11/19 12:45:05;;;;;;;17.63;10.43;;;;;;;;;;4990471;28;20037;-76
2021/11/19 12:47:53;;;;;;;18.63;10.95;;;;;;;;;;4989001;28;21424;-76
2021/11/19 12:50:46;;;;;;;19.52;10.85;;;;;;;;;;4992176;28;20122;-76
2021/11/19 12:56:18;;;;;;;15.05;9.00;;;;;;;;;;4989949;28;20062;-75
2021/11/19 12:58:48;;;;;;;13.65;9.30;;;;;;;;;;4990655;28;20052;-76
2021/11/19 13:05:04;;;;;;;13.38;7.78;;;;;;;;;;4998181;28;20044;-78
2021/11/19 13:11:12;;;;;;;14.30;9.05;;;;;;;;;;5000732;22;20065;-60
2021/11/19 13:13:38;;;;;;;15.13;9.75;;;;;;;;;;4989170;28;20025;-57
2021/11/19 13:16:22;;;;;;;15.65;9.98;;;;;;;;;;5002963;28;20042;-59
2021/11/19 13:18:50;;;;;;;12.27;7.47;;;;;;;;;;4996308;28;20547;-57
2021/11/19 13:21:34;;;;;;;17.13;10.25;;;;;;;;;;4991861;28;20022;-58
2021/11/19 13:24:12;;;;;;;15.32;10.13;;;;;;;;;;4991359;28;20034;-58
2021/11/19 13:26:41;;;;;;;19.40;11.48;;;;;;;;;;4986002;28;20053;-58
2021/11/19 13:29:11;;;;;;;22.92;12.73;;;;;;;;;;4986909;28;20030;-58
2021/11/19 13:31:41;;;;;;;16.40;10.48;;;;;;;;;;4987276;28;20025;-56
2021/11/19 13:34:07;;;;;;;14.15;10.10;;;;;;;;;;4986245;28;20388;-58
2021/11/19 13:36:38;;;;;;;17.52;11.45;;;;;;;;;;4985985;28;20033;-57
2021/11/19 13:39:26;;;;;;;19.85;11.52;;;;;;;;;;4990717;28;20026;-57
2021/11/19 13:42:15;;;;;;;20.83;11.37;;;;;;;;;;4993791;28;20514;-58
2021/11/19 13:45:12;;;;;;;27.45;13.60;;;;;;;;;;4960197;28;20062;-59
2021/11/19 13:47:45;;;;;;;41.20;12.27;;;;;;;;;;4998637;28;20447;-57
2021/11/19 13:50:28;;;;;;;16.05;8.52;;;;;;;;;;4986830;28;20507;-58
2021/11/19 13:53:02;;;;;;;17.98;10.20;;;;;;;;;;4980243;28;20030;-57
2021/11/19 13:55:52;;;;;;;18.20;10.02;;;;;;;;;;4995086;28;20080;-57
2021/11/19 13:58:20;;;;;;;19.92;9.35;;;;;;;;;;4993583;28;20069;-57
2021/11/19 14:01:27;;;;;;;22.15;10.30;;;;;;;;;;4985169;28;20034;-57
2021/11/19 14:03:55;;;;;;;16.08;9.00;;;;;;;;;;4988852;28;20092;-58
2021/11/19 14:06:36;;;;;;;17.15;8.95;;;;;;;;;;4990987;28;20037;-57
2021/11/19 14:09:11;;;;;;;18.73;9.25;;;;;;;;;;4983374;28;20072;-60
2021/11/19 14:11:40;;;;;;;14.10;8.40;;;;;;;;;;4984564;28;20045;-57
2021/11/19 14:14:22;;;;;;;11.45;7.68;;;;;;;;;;4994160;28;20029;-58
2021/11/19 14:16:53;;;;;;;15.55;9.02;;;;;;;;;;4988792;28;20037;-57
2021/11/19 14:19:33;;;;;;;13.48;7.68;;;;;;;;;;4987130;28;20030;-57
2021/11/19 14:22:06;;;;;;;18.83;8.63;;;;;;;;;;4999561;28;20104;-57
2021/11/19 14:24:48;;;;;;;15.70;10.18;;;;;;;;;;4998685;28;20069;-58
2021/11/19 14:27:26;;;;;;;19.50;11.18;;;;;;;;;;5000118;28;20487;-57
2021/11/19 14:30:21;;;;;;;16.63;9.35;;;;;;;;;;5000191;28;20045;-57
2021/11/19 14:33:15;;;;;;;17.70;9.48;;;;;;;;;;4980188;28;20053;-57
2021/11/19 14:35:51;;;;;;;16.42;10.00;;;;;;;;;;4993985;28;20492;-57
2021/11/19 14:38:27;;;;;;;20.35;9.85;;;;;;;;;;5003542;28;20037;-57
2021/11/19 14:41:08;;;;;;;19.25;10.15;;;;;;;;;;5004957;28;20084;-57
2021/11/19 14:43:40;;;;;;;19.85;10.88;;;;;;;;;;4999242;28;20034;-56
2021/11/19 14:46:08;;;;;;;44.97;15.25;;;;;;;;;;4996356;28;20057;-59
2021/11/19 14:48:58;;;;;;;27.50;12.30;;;;;;;;;;5002429;28;20049;-57
2021/11/19 14:51:29;;;;;;;23.40;11.88;;;;;;;;;;5000014;28;20524;-57
2021/11/19 14:54:01;;;;;;;25.17;12.15;;;;;;;;;;5003113;28;20033;-57
2021/11/19 14:56:37;;;;;;;25.23;12.38;;;;;;;;;;4998626;28;20120;-57
2021/11/19 14:59:09;;;;;;;24.08;12.27;;;;;;;;;;4998023;28;20167;-57
2021/11/19 15:01:47;;;;;;;24.40;11.98;;;;;;;;;;5002674;28;20148;-57
2021/11/19 15:04:26;;;;;;;19.52;11.10;;;;;;;;;;5005724;28;20411;-58
2021/11/19 15:07:07;;;;;;;22.60;12.73;;;;;;;;;;4999878;28;20104;-57